TimeCST,TemperatureF,Dew PointF,Humidity,Sea Level PressureIn,VisibilityMPH,Wind Direction,Wind SpeedMPH,Gust SpeedMPH,PrecipitationIn,Events,Conditions,WindDirDegrees,DateUTC
12:56 AM,15.1,10.9,84,30.22,10.0,SW,4.6,-,N/A,,Clear,230,2013-01-04 06:56:00
1:56 AM,18.0,12.0,78,30.19,10.0,SW,8.1,-,N/A,,Clear,220,2013-01-04 07:56:00
2:56 AM,16.0,10.9,81,30.20,10.0,SW,6.9,-,N/A,,Clear,230,2013-01-04 08:56:00
3:56 AM,10.9,8.1,88,30.21,10.0,Calm,Calm,-,N/A,,Clear,0,2013-01-04 09:56:00
4:56 AM,14.0,10.0,84,30.18,10.0,Variable,4.6,-,N/A,,Clear,0,2013-01-04 10:56:00
5:56 AM,14.0,10.0,84,30.18,10.0,SW,5.8,-,N/A,,Clear,230,2013-01-04 11:56:00
6:56 AM,10.9,7.0,84,30.19,10.0,Calm,Calm,-,N/A,,Clear,0,2013-01-04 12:56:00
7:56 AM,12.0,8.1,84,30.19,10.0,Calm,Calm,-,N/A,,Clear,0,2013-01-04 13:56:00
8:56 AM,14.0,8.1,77,30.19,10.0,SW,4.6,-,N/A,,Clear,220,2013-01-04 14:56:00
9:56 AM,17.1,9.0,71,30.21,10.0,WSW,4.6,-,N/A,,Clear,240,2013-01-04 15:56:00
10:56 AM,19.9,10.0,65,30.22,10.0,West,4.6,-,N/A,,Clear,280,2013-01-04 16:56:00
11:56 AM,21.9,10.9,63,30.21,10.0,West,6.9,-,N/A,,Clear,260,2013-01-04 17:56:00
12:56 PM,24.1,12.0,60,30.19,10.0,NW,3.5,-,N/A,,Clear,310,2013-01-04 18:56:00
1:56 PM,26.1,12.9,58,30.17,10.0,Calm,Calm,-,N/A,,Clear,0,2013-01-04 19:56:00
2:56 PM,28.0,12.9,53,30.17,10.0,Calm,Calm,-,N/A,,Clear,0,2013-01-04 20:56:00
3:36 PM,26.6,12.2,55,30.10,10.0,Calm,Calm,-,N/A,,Partly Cloudy,0,2013-01-04 21:36:00
3:56 PM,26.1,12.0,55,30.18,10.0,Calm,Calm,-,N/A,,Partly Cloudy,0,2013-01-04 21:56:00
4:56 PM,23.0,12.9,65,30.18,10.0,SSW,3.5,-,N/A,,Clear,200,2013-01-04 22:56:00
5:56 PM,19.9,12.9,74,30.18,10.0,South,3.5,-,N/A,,Clear,190,2013-01-04 23:56:00
6:56 PM,15.1,10.0,80,30.19,10.0,Calm,Calm,-,N/A,,Clear,0,2013-01-05 00:56:00
7:56 PM,10.0,7.0,87,30.19,10.0,Calm,Calm,-,N/A,,Clear,0,2013-01-05 01:56:00
8:56 PM,9.0,6.1,88,30.16,10.0,Calm,Calm,-,N/A,,Clear,0,2013-01-05 02:56:00
9:56 PM,8.1,5.0,87,30.14,10.0,Calm,Calm,-,N/A,,Clear,0,2013-01-05 03:56:00
10:56 PM,5.0,3.0,92,30.15,10.0,Calm,Calm,-,N/A,,Clear,0,2013-01-05 04:56:00
11:56 PM,6.1,3.9,91,30.13,10.0,Calm,Calm,-,N/A,,Clear,0,2013-01-05 05:56:00